sensor_id;sensor_type;location;lat;lon;timestamp;pressure;altitude;pressure_sealevel;temperature;humidity
56270;BME280;42176;43.240;27.880;2022-09-14T00:01:31;99854.16;;;16.26;82.96
56270;BME280;42176;43.240;27.880;2022-09-14T00:03:59;99859.38;;;16.29;82.93
56270;BME280;42176;43.240;27.880;2022-09-14T00:06:25;99855.75;;;16.31;82.74
56270;BME280;42176;43.240;27.880;2022-09-14T00:08:52;99854.81;;;16.32;82.70
56270;BME280;42176;43.240;27.880;2022-09-14T00:11:20;99798.47;;;16.00;82.61
56270;BME280;42176;43.240;27.880;2022-09-14T00:13:46;99855.06;;;16.27;83.00
56270;BME280;42176;43.240;27.880;2022-09-14T00:16:22;99857.78;;;16.25;82.92
56270;BME280;42176;43.240;27.880;2022-09-14T00:18:53;99855.19;;;16.24;82.79
56270;BME280;42176;43.240;27.880;2022-09-14T00:21:19;99858.09;;;16.19;82.89
56270;BME280;42176;43.240;27.880;2022-09-14T00:23:45;99857.31;;;16.17;83.00
56270;BME280;42176;43.240;27.880;2022-09-14T00:26:16;99852.91;;;16.16;83.20
56270;BME280;42176;43.240;27.880;2022-09-14T00:28:53;99864.59;;;16.13;83.06
56270;BME280;42176;43.240;27.880;2022-09-14T00:31:20;99863.75;;;16.13;83.04
56270;BME280;42176;43.240;27.880;2022-09-14T00:33:47;99873.56;;;16.12;83.18
56270;BME280;42176;43.240;27.880;2022-09-14T00:36:15;99874.59;;;16.10;83.02
56270;BME280;42176;43.240;27.880;2022-09-14T00:38:41;99876.47;;;16.08;82.73
56270;BME280;42176;43.240;27.880;2022-09-14T00:41:11;99861.69;;;16.01;82.49
56270;BME280;42176;43.240;27.880;2022-09-14T00:46:34;99875.91;;;16.01;81.27
56270;BME280;42176;43.240;27.880;2022-09-14T00:49:02;99866.25;;;15.98;81.30
56270;BME280;42176;43.240;27.880;2022-09-14T00:51:31;99877.06;;;15.95;80.85
56270;BME280;42176;43.240;27.880;2022-09-14T00:53:59;99859.75;;;15.85;80.37
56270;BME280;42176;43.240;27.880;2022-09-14T00:56:25;99873.75;;;15.90;79.80
56270;BME280;42176;43.240;27.880;2022-09-14T00:58:51;99876.69;;;15.84;80.25
56270;BME280;42176;43.240;27.880;2022-09-14T01:01:18;99875.91;;;15.82;80.61
56270;BME280;42176;43.240;27.880;2022-09-14T01:03:43;99875.25;;;15.77;80.36
56270;BME280;42176;43.240;27.880;2022-09-14T01:06:15;99879.97;;;15.72;80.56
56270;BME280;42176;43.240;27.880;2022-09-14T01:14:30;99863.06;;;15.52;81.43
56270;BME280;42176;43.240;27.880;2022-09-14T01:17:13;99872.16;;;15.48;81.71
56270;BME280;42176;43.240;27.880;2022-09-14T01:20:02;99870.41;;;15.47;81.40
56270;BME280;42176;43.240;27.880;2022-09-14T01:28:40;99851.22;;;15.38;80.73
56270;BME280;42176;43.240;27.880;2022-09-14T01:31:16;99853.22;;;15.33;80.57
56270;BME280;42176;43.240;27.880;2022-09-14T01:33:54;99860.03;;;15.41;80.81
56270;BME280;42176;43.240;27.880;2022-09-14T01:36:22;99859.25;;;15.38;81.06
56270;BME280;42176;43.240;27.880;2022-09-14T01:38:50;99861.25;;;15.33;80.94
56270;BME280;42176;43.240;27.880;2022-09-14T01:41:21;99869.13;;;15.36;81.04
56270;BME280;42176;43.240;27.880;2022-09-14T01:43:53;99859.66;;;15.29;81.03
56270;BME280;42176;43.240;27.880;2022-09-14T01:46:27;99867.66;;;15.29;81.17
56270;BME280;42176;43.240;27.880;2022-09-14T01:51:40;99878.47;;;15.26;81.21
56270;BME280;42176;43.240;27.880;2022-09-14T01:56:43;99872.53;;;15.19;80.93
56270;BME280;42176;43.240;27.880;2022-09-14T01:59:20;99876.09;;;15.20;80.64
56270;BME280;42176;43.240;27.880;2022-09-14T02:01:54;99870.91;;;15.17;80.31
56270;BME280;42176;43.240;27.880;2022-09-14T02:04:28;99873.69;;;15.14;80.23
56270;BME280;42176;43.240;27.880;2022-09-14T02:06:55;99874.00;;;15.07;80.05
56270;BME280;42176;43.240;27.880;2022-09-14T02:09:22;99863.13;;;14.91;79.95
56270;BME280;42176;43.240;27.880;2022-09-14T02:11:51;99872.19;;;14.87;80.19
56270;BME280;42176;43.240;27.880;2022-09-14T02:14:17;99877.38;;;14.90;79.75
56270;BME280;42176;43.240;27.880;2022-09-14T02:16:43;99874.81;;;14.89;79.85
56270;BME280;42176;43.240;27.880;2022-09-14T02:19:13;99885.69;;;14.84;79.91
56270;BME280;42176;43.240;27.880;2022-09-14T02:21:39;99887.47;;;14.84;80.10
56270;BME280;42176;43.240;27.880;2022-09-14T02:24:05;99891.19;;;14.80;80.09
56270;BME280;42176;43.240;27.880;2022-09-14T02:26:31;99892.34;;;14.74;79.41
56270;BME280;42176;43.240;27.880;2022-09-14T02:28:56;99882.41;;;14.77;78.90
56270;BME280;42176;43.240;27.880;2022-09-14T02:34:23;99885.22;;;14.74;78.49
56270;BME280;42176;43.240;27.880;2022-09-14T02:45:10;99881.56;;;14.55;77.37
56270;BME280;42176;43.240;27.880;2022-09-14T02:53:36;99856.28;;;14.43;76.03
56270;BME280;42176;43.240;27.880;2022-09-14T02:56:06;99875.56;;;14.50;75.52
56270;BME280;42176;43.240;27.880;2022-09-14T02:58:38;99875.69;;;14.46;75.01
56270;BME280;42176;43.240;27.880;2022-09-14T03:01:05;99857.41;;;14.37;74.56
56270;BME280;42176;43.240;27.880;2022-09-14T03:03:32;99882.56;;;14.52;74.03
56270;BME280;42176;43.240;27.880;2022-09-14T03:05:57;99877.25;;;14.52;73.12
56270;BME280;42176;43.240;27.880;2022-09-14T03:08:24;99868.56;;;14.47;73.51
56270;BME280;42176;43.240;27.880;2022-09-14T03:10:50;99874.63;;;14.51;72.82
56270;BME280;42176;43.240;27.880;2022-09-14T03:13:15;99868.47;;;14.49;72.28
56270;BME280;42176;43.240;27.880;2022-09-14T03:15:41;99876.56;;;14.47;72.20
56270;BME280;42176;43.240;27.880;2022-09-14T03:18:07;99867.81;;;14.43;72.13
56270;BME280;42176;43.240;27.880;2022-09-14T03:20:33;99867.69;;;14.46;71.29
56270;BME280;42176;43.240;27.880;2022-09-14T03:23:00;99863.94;;;14.51;70.76
56270;BME280;42176;43.240;27.880;2022-09-14T03:25:26;99869.84;;;14.59;70.42
56270;BME280;42176;43.240;27.880;2022-09-14T03:27:56;99872.38;;;14.62;70.00
56270;BME280;42176;43.240;27.880;2022-09-14T03:30:23;99882.13;;;14.63;69.68
56270;BME280;42176;43.240;27.880;2022-09-14T03:32:48;99887.47;;;14.63;69.71
56270;BME280;42176;43.240;27.880;2022-09-14T03:35:15;99890.13;;;14.63;69.74
56270;BME280;42176;43.240;27.880;2022-09-14T03:37:42;99886.50;;;14.64;70.17
56270;BME280;42176;43.240;27.880;2022-09-14T03:40:08;99904.22;;;14.65;69.98
56270;BME280;42176;43.240;27.880;2022-09-14T03:42:35;99905.13;;;14.66;69.98
56270;BME280;42176;43.240;27.880;2022-09-14T03:45:00;99907.84;;;14.64;70.19
56270;BME280;42176;43.240;27.880;2022-09-14T03:47:26;99907.06;;;14.62;70.09
56270;BME280;42176;43.240;27.880;2022-09-14T03:49:52;99906.97;;;14.64;70.18
56270;BME280;42176;43.240;27.880;2022-09-14T03:52:18;99913.16;;;14.64;69.86
56270;BME280;42176;43.240;27.880;2022-09-14T03:54:44;99917.66;;;14.64;69.56
56270;BME280;42176;43.240;27.880;2022-09-14T03:57:09;99919.38;;;14.65;69.88
56270;BME280;42176;43.240;27.880;2022-09-14T03:59:35;99925.56;;;14.65;69.85
56270;BME280;42176;43.240;27.880;2022-09-14T04:02:01;99924.66;;;14.66;70.04
56270;BME280;42176;43.240;27.880;2022-09-14T04:04:27;99914.84;;;14.67;70.04
56270;BME280;42176;43.240;27.880;2022-09-14T04:06:53;99909.34;;;14.71;69.77
56270;BME280;42176;43.240;27.880;2022-09-14T04:09:19;99923.38;;;14.76;70.01
56270;BME280;42176;43.240;27.880;2022-09-14T04:11:45;99920.38;;;14.84;71.73
56270;BME280;42176;43.240;27.880;2022-09-14T04:14:11;99924.53;;;15.31;69.31
56270;BME280;42176;43.240;27.880;2022-09-14T04:16:37;99915.41;;;16.13;65.69
56270;BME280;42176;43.240;27.880;2022-09-14T04:19:03;99920.91;;;16.82;62.69
56270;BME280;42176;43.240;27.880;2022-09-14T04:21:29;99912.34;;;17.44;60.37
56270;BME280;42176;43.240;27.880;2022-09-14T04:23:55;99922.47;;;18.05;57.84
56270;BME280;42176;43.240;27.880;2022-09-14T04:26:26;99918.41;;;18.60;54.84
56270;BME280;42176;43.240;27.880;2022-09-14T04:28:52;99921.94;;;19.07;53.27
56270;BME280;42176;43.240;27.880;2022-09-14T04:31:19;99927.03;;;19.12;53.36
56270;BME280;42176;43.240;27.880;2022-09-14T04:33:44;99920.47;;;19.16;53.28
56270;BME280;42176;43.240;27.880;2022-09-14T04:36:12;99923.88;;;19.92;50.88
56270;BME280;42176;43.240;27.880;2022-09-14T04:38:39;99929.63;;;20.55;49.37
56270;BME280;42176;43.240;27.880;2022-09-14T04:41:06;99927.91;;;21.07;48.52
56270;BME280;42176;43.240;27.880;2022-09-14T04:43:32;99926.78;;;21.63;46.93
56270;BME280;42176;43.240;27.880;2022-09-14T04:46:06;99928.00;;;22.20;44.86
56270;BME280;42176;43.240;27.880;2022-09-14T04:48:33;99929.38;;;22.75;43.85
56270;BME280;42176;43.240;27.880;2022-09-14T04:51:08;99935.44;;;23.25;42.53
56270;BME280;42176;43.240;27.880;2022-09-14T04:53:36;99932.16;;;23.79;42.22
56270;BME280;42176;43.240;27.880;2022-09-14T04:56:07;99923.00;;;24.25;40.65
56270;BME280;42176;43.240;27.880;2022-09-14T04:58:34;99931.09;;;24.69;39.73
56270;BME280;42176;43.240;27.880;2022-09-14T05:01:05;99921.84;;;24.72;39.84
56270;BME280;42176;43.240;27.880;2022-09-14T05:03:31;99925.19;;;24.64;40.01
56270;BME280;42176;43.240;27.880;2022-09-14T05:06:08;99928.09;;;24.84;39.32
56270;BME280;42176;43.240;27.880;2022-09-14T05:08:34;99924.25;;;25.50;37.85
56270;BME280;42176;43.240;27.880;2022-09-14T05:11:01;99920.50;;;26.33;35.71
56270;BME280;42176;43.240;27.880;2022-09-14T05:13:26;99923.78;;;27.25;34.57
56270;BME280;42176;43.240;27.880;2022-09-14T05:15:52;99916.75;;;27.98;32.98
56270;BME280;42176;43.240;27.880;2022-09-14T05:18:17;99920.28;;;28.72;32.21
56270;BME280;42176;43.240;27.880;2022-09-14T05:20:43;99922.56;;;29.29;30.98
56270;BME280;42176;43.240;27.880;2022-09-14T05:23:09;99918.19;;;30.06;29.86
56270;BME280;42176;43.240;27.880;2022-09-14T05:25:34;99921.22;;;30.54;29.58
56270;BME280;42176;43.240;27.880;2022-09-14T05:28:00;99930.66;;;31.09;27.92
56270;BME280;42176;43.240;27.880;2022-09-14T05:30:25;99932.06;;;31.78;26.92
56270;BME280;42176;43.240;27.880;2022-09-14T05:32:51;99925.41;;;32.44;26.02
56270;BME280;42176;43.240;27.880;2022-09-14T05:35:17;99921.16;;;33.03;25.62
56270;BME280;42176;43.240;27.880;2022-09-14T05:37:42;99935.19;;;33.61;24.40
56270;BME280;42176;43.240;27.880;2022-09-14T05:40:08;99921.59;;;34.05;24.07
56270;BME280;42176;43.240;27.880;2022-09-14T05:42:34;99929.91;;;34.41;24.23
56270;BME280;42176;43.240;27.880;2022-09-14T05:44:59;99904.84;;;34.36;23.67
56270;BME280;42176;43.240;27.880;2022-09-14T05:47:28;99938.34;;;34.25;23.55
56270;BME280;42176;43.240;27.880;2022-09-14T05:49:53;99941.56;;;33.92;24.10
56270;BME280;42176;43.240;27.880;2022-09-14T05:52:19;99936.59;;;34.02;23.54
56270;BME280;42176;43.240;27.880;2022-09-14T05:54:46;99946.03;;;34.14;23.68
56270;BME280;42176;43.240;27.880;2022-09-14T05:57:11;99945.16;;;34.44;23.23
56270;BME280;42176;43.240;27.880;2022-09-14T05:59:36;99950.59;;;34.81;23.25
56270;BME280;42176;43.240;27.880;2022-09-14T06:02:02;99952.00;;;35.20;22.48
56270;BME280;42176;43.240;27.880;2022-09-14T06:04:28;99951.72;;;35.72;21.95
56270;BME280;42176;43.240;27.880;2022-09-14T06:06:53;99938.44;;;36.37;21.64
56270;BME280;42176;43.240;27.880;2022-09-14T06:09:19;99931.31;;;36.63;20.90
56270;BME280;42176;43.240;27.880;2022-09-14T06:11:44;99912.63;;;36.72;20.18
56270;BME280;42176;43.240;27.880;2022-09-14T06:14:09;99957.25;;;37.36;20.10
56270;BME280;42176;43.240;27.880;2022-09-14T06:16:35;99953.84;;;37.34;19.54
56270;BME280;42176;43.240;27.880;2022-09-14T06:19:09;99950.16;;;37.81;18.74
56270;BME280;42176;43.240;27.880;2022-09-14T06:21:36;99951.97;;;38.14;18.71
56270;BME280;42176;43.240;27.880;2022-09-14T06:24:02;99962.97;;;38.27;18.37
56270;BME280;42176;43.240;27.880;2022-09-14T06:26:30;99966.78;;;38.26;18.33
56270;BME280;42176;43.240;27.880;2022-09-14T06:28:56;99970.38;;;37.74;18.81
56270;BME280;42176;43.240;27.880;2022-09-14T06:31:25;99973.25;;;38.06;18.48
56270;BME280;42176;43.240;27.880;2022-09-14T06:33:53;99968.44;;;38.41;18.27
56270;BME280;42176;43.240;27.880;2022-09-14T06:36:24;99968.50;;;38.27;18.48
56270;BME280;42176;43.240;27.880;2022-09-14T06:38:50;99953.84;;;38.59;17.59
56270;BME280;42176;43.240;27.880;2022-09-14T06:41:19;99969.47;;;38.85;17.36
56270;BME280;42176;43.240;27.880;2022-09-14T06:43:46;99972.84;;;38.10;17.88
56270;BME280;42176;43.240;27.880;2022-09-14T06:46:20;99958.78;;;38.04;17.40
56270;BME280;42176;43.240;27.880;2022-09-14T06:48:48;99972.16;;;38.60;17.15
56270;BME280;42176;43.240;27.880;2022-09-14T06:51:19;99969.47;;;38.85;16.79
56270;BME280;42176;43.240;27.880;2022-09-14T06:53:46;99975.31;;;38.63;16.95
56270;BME280;42176;43.240;27.880;2022-09-14T06:56:13;99969.97;;;38.68;16.58
56270;BME280;42176;43.240;27.880;2022-09-14T06:58:39;99953.25;;;38.04;16.95
56270;BME280;42176;43.240;27.880;2022-09-14T07:01:08;99970.75;;;38.82;16.67
56270;BME280;42176;43.240;27.880;2022-09-14T07:03:36;99970.81;;;39.26;16.11
56270;BME280;42176;43.240;27.880;2022-09-14T07:06:13;99979.47;;;38.86;16.23
56270;BME280;42176;43.240;27.880;2022-09-14T07:08:43;99964.56;;;39.56;15.65
56270;BME280;42176;43.240;27.880;2022-09-14T07:11:11;99977.63;;;39.74;15.27
56270;BME280;42176;43.240;27.880;2022-09-14T07:13:37;99979.44;;;39.43;15.78
56270;BME280;42176;43.240;27.880;2022-09-14T07:16:03;99947.50;;;39.09;15.96
56270;BME280;42176;43.240;27.880;2022-09-14T07:18:32;99979.34;;;38.67;16.41
56270;BME280;42176;43.240;27.880;2022-09-14T07:21:08;99976.72;;;39.37;16.07
56270;BME280;42176;43.240;27.880;2022-09-14T07:23:35;99977.53;;;39.12;16.39
56270;BME280;42176;43.240;27.880;2022-09-14T07:26:17;99982.41;;;38.91;16.61
56270;BME280;42176;43.240;27.880;2022-09-14T07:28:45;99983.03;;;38.61;16.75
56270;BME280;42176;43.240;27.880;2022-09-14T07:31:39;99973.69;;;38.88;16.61
56270;BME280;42176;43.240;27.880;2022-09-14T07:34:08;99967.16;;;37.91;17.83
56270;BME280;42176;43.240;27.880;2022-09-14T07:36:36;99979.53;;;37.68;17.59
56270;BME280;42176;43.240;27.880;2022-09-14T07:39:07;99974.38;;;38.44;17.17
56270;BME280;42176;43.240;27.880;2022-09-14T07:41:33;99966.53;;;38.73;16.75
56270;BME280;42176;43.240;27.880;2022-09-14T07:44:00;99966.84;;;39.41;16.36
56270;BME280;42176;43.240;27.880;2022-09-14T07:46:37;99977.94;;;38.90;16.27
56270;BME280;42176;43.240;27.880;2022-09-14T07:49:04;99974.13;;;38.00;17.12
56270;BME280;42176;43.240;27.880;2022-09-14T07:51:31;99973.13;;;38.33;17.10
56270;BME280;42176;43.240;27.880;2022-09-14T07:53:57;99941.44;;;37.70;17.63
56270;BME280;42176;43.240;27.880;2022-09-14T07:56:24;99965.09;;;37.32;17.46
56270;BME280;42176;43.240;27.880;2022-09-14T07:58:54;99959.81;;;37.31;18.05
56270;BME280;42176;43.240;27.880;2022-09-14T08:01:21;99974.69;;;37.43;17.55
56270;BME280;42176;43.240;27.880;2022-09-14T08:03:47;99959.38;;;37.54;17.44
56270;BME280;42176;43.240;27.880;2022-09-14T08:06:18;99966.41;;;37.16;17.77
56270;BME280;42176;43.240;27.880;2022-09-14T08:08:46;99965.16;;;38.12;17.51
56270;BME280;42176;43.240;27.880;2022-09-14T08:11:17;99957.38;;;37.82;17.63
56270;BME280;42176;43.240;27.880;2022-09-14T08:14:05;99907.09;;;36.85;17.68
56270;BME280;42176;43.240;27.880;2022-09-14T08:16:32;99960.72;;;35.87;19.21
56270;BME280;42176;43.240;27.880;2022-09-14T08:19:04;99961.00;;;35.64;19.34
56270;BME280;42176;43.240;27.880;2022-09-14T08:21:34;99966.84;;;36.24;19.05
56270;BME280;42176;43.240;27.880;2022-09-14T08:23:59;99960.94;;;36.27;18.44
56270;BME280;42176;43.240;27.880;2022-09-14T08:26:28;99957.38;;;36.47;18.66
56270;BME280;42176;43.240;27.880;2022-09-14T08:28:54;99970.94;;;36.42;18.58
56270;BME280;42176;43.240;27.880;2022-09-14T08:31:22;99963.56;;;36.56;17.84
56270;BME280;42176;43.240;27.880;2022-09-14T08:33:56;99964.97;;;36.38;17.97
56270;BME280;42176;43.240;27.880;2022-09-14T08:36:25;99972.06;;;36.54;18.35
56270;BME280;42176;43.240;27.880;2022-09-14T08:38:50;99968.97;;;36.29;18.75
56270;BME280;42176;43.240;27.880;2022-09-14T08:47:05;99946.22;;;35.72;19.42
56270;BME280;42176;43.240;27.880;2022-09-14T08:49:47;99965.41;;;34.80;20.03
56270;BME280;42176;43.240;27.880;2022-09-14T08:54:59;99949.78;;;34.43;20.16
56270;BME280;42176;43.240;27.880;2022-09-14T08:58:18;99941.69;;;34.79;19.37
56270;BME280;42176;43.240;27.880;2022-09-14T09:01:15;99944.94;;;34.45;20.16
56270;BME280;42176;43.240;27.880;2022-09-14T09:04:05;99948.41;;;33.28;21.41
56270;BME280;42176;43.240;27.880;2022-09-14T09:06:48;99935.81;;;30.96;23.82
56270;BME280;42176;43.240;27.880;2022-09-14T09:11:56;99933.19;;;28.52;26.87
56270;BME280;42176;43.240;27.880;2022-09-14T09:14:28;99921.06;;;28.00;27.94
56270;BME280;42176;43.240;27.880;2022-09-14T09:17:01;99940.72;;;27.66;28.62
56270;BME280;42176;43.240;27.880;2022-09-14T09:19:31;99938.50;;;27.32;29.60
56270;BME280;42176;43.240;27.880;2022-09-14T09:21:58;99935.97;;;27.01;29.49
56270;BME280;42176;43.240;27.880;2022-09-14T09:24:33;99946.59;;;26.84;29.55
56270;BME280;42176;43.240;27.880;2022-09-14T09:27:01;99933.97;;;26.64;29.67
56270;BME280;42176;43.240;27.880;2022-09-14T09:29:29;99925.66;;;26.55;29.45
56270;BME280;42176;43.240;27.880;2022-09-14T09:31:55;99908.22;;;26.38;29.66
56270;BME280;42176;43.240;27.880;2022-09-14T09:34:28;99923.94;;;26.35;28.95
56270;BME280;42176;43.240;27.880;2022-09-14T09:36:54;99910.91;;;26.19;29.15
56270;BME280;42176;43.240;27.880;2022-09-14T09:39:22;99918.69;;;25.92;29.34
56270;BME280;42176;43.240;27.880;2022-09-14T09:42:06;99926.09;;;25.90;29.86
56270;BME280;42176;43.240;27.880;2022-09-14T09:44:55;99913.97;;;25.94;29.27
56270;BME280;42176;43.240;27.880;2022-09-14T09:50:03;99908.41;;;25.96;30.25
56270;BME280;42176;43.240;27.880;2022-09-14T09:52:29;99908.09;;;25.89;30.42
56270;BME280;42176;43.240;27.880;2022-09-14T09:55:06;99910.94;;;25.78;30.85
56270;BME280;42176;43.240;27.880;2022-09-14T09:57:36;99913.09;;;25.84;31.20
56270;BME280;42176;43.240;27.880;2022-09-14T10:00:23;99926.66;;;25.84;30.32
56270;BME280;42176;43.240;27.880;2022-09-14T10:02:49;99906.63;;;25.85;30.08
56270;BME280;42176;43.240;27.880;2022-09-14T10:05:26;99901.22;;;25.85;29.93
56270;BME280;42176;43.240;27.880;2022-09-14T10:08:00;99887.97;;;25.92;29.50
56270;BME280;42176;43.240;27.880;2022-09-14T10:10:40;99879.78;;;25.82;30.16
56270;BME280;42176;43.240;27.880;2022-09-14T10:13:26;99903.22;;;25.93;29.82
56270;BME280;42176;43.240;27.880;2022-09-14T10:15:53;99915.28;;;26.10;29.43
56270;BME280;42176;43.240;27.880;2022-09-14T10:18:29;99903.25;;;26.03;29.18
56270;BME280;42176;43.240;27.880;2022-09-14T10:23:28;99897.50;;;25.86;29.36
56270;BME280;42176;43.240;27.880;2022-09-14T10:28:40;99912.41;;;26.02;28.46
56270;BME280;42176;43.240;27.880;2022-09-14T10:31:16;99919.56;;;26.03;28.02
56270;BME280;42176;43.240;27.880;2022-09-14T10:33:43;99911.53;;;25.91;28.12
56270;BME280;42176;43.240;27.880;2022-09-14T10:38:44;99900.06;;;25.78;28.10
56270;BME280;42176;43.240;27.880;2022-09-14T10:41:50;99900.34;;;25.75;28.05
56270;BME280;42176;43.240;27.880;2022-09-14T10:58:27;99884.22;;;25.93;27.29
56270;BME280;42176;43.240;27.880;2022-09-14T11:01:18;99882.69;;;26.00;27.02
56270;BME280;42176;43.240;27.880;2022-09-14T11:09:05;99877.88;;;26.23;26.96
56270;BME280;42176;43.240;27.880;2022-09-14T11:11:55;99888.19;;;26.29;26.98
56270;BME280;42176;43.240;27.880;2022-09-14T11:15:07;99874.91;;;26.26;27.02
56270;BME280;42176;43.240;27.880;2022-09-14T11:17:59;99880.59;;;26.23;26.86
56270;BME280;42176;43.240;27.880;2022-09-14T11:20:43;99880.59;;;26.23;26.75
56270;BME280;42176;43.240;27.880;2022-09-14T11:28:56;99880.75;;;26.32;25.66
56270;BME280;42176;43.240;27.880;2022-09-14T11:31:43;99855.00;;;26.16;26.11
56270;BME280;42176;43.240;27.880;2022-09-14T11:36:40;99884.06;;;26.35;25.92
56270;BME280;42176;43.240;27.880;2022-09-14T11:41:49;99870.31;;;26.37;26.44
56270;BME280;42176;43.240;27.880;2022-09-14T11:44:38;99862.75;;;26.31;26.84
56270;BME280;42176;43.240;27.880;2022-09-14T11:47:08;99867.16;;;26.32;26.56
56270;BME280;42176;43.240;27.880;2022-09-14T11:52:32;99857.44;;;26.39;26.17
56270;BME280;42176;43.240;27.880;2022-09-14T11:54:59;99844.72;;;26.29;26.40
56270;BME280;42176;43.240;27.880;2022-09-14T11:57:28;99860.44;;;26.36;25.77
56270;BME280;42176;43.240;27.880;2022-09-14T11:59:58;99855.88;;;26.17;35.03
56270;BME280;42176;43.240;27.880;2022-09-14T12:12:47;99824.00;;;24.96;39.73
56270;BME280;42176;43.240;27.880;2022-09-14T12:18:19;99830.50;;;24.30;41.97
56270;BME280;42176;43.240;27.880;2022-09-14T12:20:48;99803.88;;;24.14;43.63
56270;BME280;42176;43.240;27.880;2022-09-14T12:43:55;99811.88;;;24.15;41.69
56270;BME280;42176;43.240;27.880;2022-09-14T12:46:32;99806.50;;;24.04;42.04
56270;BME280;42176;43.240;27.880;2022-09-14T12:49:14;99795.38;;;24.18;44.75
56270;BME280;42176;43.240;27.880;2022-09-14T12:51:50;99804.97;;;24.23;42.57
56270;BME280;42176;43.240;27.880;2022-09-14T13:05:03;99787.84;;;24.22;42.83
56270;BME280;42176;43.240;27.880;2022-09-14T13:07:34;99743.25;;;24.05;43.92
56270;BME280;42176;43.240;27.880;2022-09-14T13:10:04;99785.28;;;24.21;42.84
56270;BME280;42176;43.240;27.880;2022-09-14T13:12:35;99781.38;;;24.13;42.37
56270;BME280;42176;43.240;27.880;2022-09-14T13:15:13;99778.25;;;23.97;41.93
56270;BME280;42176;43.240;27.880;2022-09-14T13:18:04;99775.56;;;23.97;45.63
56270;BME280;42176;43.240;27.880;2022-09-14T13:20:32;99782.72;;;24.19;46.98
56270;BME280;42176;43.240;27.880;2022-09-14T13:22:59;99789.50;;;24.13;47.19
56270;BME280;42176;43.240;27.880;2022-09-14T13:25:34;99788.38;;;24.16;47.89
56270;BME280;42176;43.240;27.880;2022-09-14T13:28:10;99773.53;;;24.10;48.03
56270;BME280;42176;43.240;27.880;2022-09-14T13:30:38;99776.03;;;24.23;45.11
56270;BME280;42176;43.240;27.880;2022-09-14T13:33:06;99769.03;;;24.21;45.50
56270;BME280;42176;43.240;27.880;2022-09-14T13:35:45;99777.63;;;24.26;46.77
56270;BME280;42176;43.240;27.880;2022-09-14T13:38:23;99780.53;;;24.34;45.12
56270;BME280;42176;43.240;27.880;2022-09-14T13:40:51;99779.00;;;24.20;45.09
56270;BME280;42176;43.240;27.880;2022-09-14T13:43:19;99776.34;;;24.09;48.58
56270;BME280;42176;43.240;27.880;2022-09-14T13:45:45;99795.59;;;24.27;47.51
56270;BME280;42176;43.240;27.880;2022-09-14T13:48:13;99781.09;;;24.16;43.34
56270;BME280;42176;43.240;27.880;2022-09-14T13:50:42;99775.81;;;24.15;44.25
56270;BME280;42176;43.240;27.880;2022-09-14T13:56:31;99774.19;;;24.24;43.64
56270;BME280;42176;43.240;27.880;2022-09-14T14:01:38;99777.03;;;24.43;42.43
56270;BME280;42176;43.240;27.880;2022-09-14T14:04:37;99777.75;;;24.45;43.31
56270;BME280;42176;43.240;27.880;2022-09-14T14:09:43;99768.69;;;24.56;44.18
56270;BME280;42176;43.240;27.880;2022-09-14T14:12:09;99771.88;;;24.61;42.86
56270;BME280;42176;43.240;27.880;2022-09-14T14:14:35;99769.63;;;24.45;44.87
56270;BME280;42176;43.240;27.880;2022-09-14T14:17:21;99782.31;;;24.45;46.10
56270;BME280;42176;43.240;27.880;2022-09-14T14:19:49;99780.81;;;24.52;45.58
56270;BME280;42176;43.240;27.880;2022-09-14T14:22:44;99774.59;;;24.40;45.84
56270;BME280;42176;43.240;27.880;2022-09-14T14:25:32;99784.84;;;24.37;46.09
56270;BME280;42176;43.240;27.880;2022-09-14T14:28:03;99787.00;;;24.22;46.64
56270;BME280;42176;43.240;27.880;2022-09-14T14:30:29;99779.06;;;24.30;46.46
56270;BME280;42176;43.240;27.880;2022-09-14T14:32:58;99789.38;;;24.36;46.07
56270;BME280;42176;43.240;27.880;2022-09-14T14:35:28;99797.81;;;24.22;46.78
56270;BME280;42176;43.240;27.880;2022-09-14T14:37:54;99785.78;;;24.14;48.55
56270;BME280;42176;43.240;27.880;2022-09-14T14:40:20;99792.97;;;24.04;49.38
56270;BME280;42176;43.240;27.880;2022-09-14T14:42:46;99804.53;;;24.06;49.05
56270;BME280;42176;43.240;27.880;2022-09-14T14:45:18;99804.06;;;23.90;49.75
56270;BME280;42176;43.240;27.880;2022-09-14T14:47:45;99797.47;;;23.82;51.42
56270;BME280;42176;43.240;27.880;2022-09-14T14:50:17;99799.78;;;23.87;50.90
56270;BME280;42176;43.240;27.880;2022-09-14T14:52:46;99791.44;;;23.79;52.32
56270;BME280;42176;43.240;27.880;2022-09-14T14:55:12;99804.88;;;23.57;54.21
56270;BME280;42176;43.240;27.880;2022-09-14T14:57:37;99785.50;;;23.41;55.53
56270;BME280;42176;43.240;27.880;2022-09-14T15:00:11;99807.22;;;23.62;56.79
56270;BME280;42176;43.240;27.880;2022-09-14T15:02:40;99796.56;;;23.49;57.81
56270;BME280;42176;43.240;27.880;2022-09-14T15:05:06;99806.63;;;23.36;59.51
56270;BME280;42176;43.240;27.880;2022-09-14T15:07:31;99799.78;;;23.32;60.60
56270;BME280;42176;43.240;27.880;2022-09-14T15:09:57;99785.75;;;23.26;61.04
56270;BME280;42176;43.240;27.880;2022-09-14T15:12:23;99792.63;;;23.31;62.11
56270;BME280;42176;43.240;27.880;2022-09-14T15:14:48;99803.47;;;23.31;62.04
56270;BME280;42176;43.240;27.880;2022-09-14T15:17:14;99796.94;;;23.22;62.38
56270;BME280;42176;43.240;27.880;2022-09-14T15:19:39;99759.56;;;23.04;62.12
56270;BME280;42176;43.240;27.880;2022-09-14T15:22:05;99794.84;;;23.25;62.33
56270;BME280;42176;43.240;27.880;2022-09-14T15:24:36;99785.75;;;23.26;62.24
56270;BME280;42176;43.240;27.880;2022-09-14T15:27:04;99781.31;;;23.25;61.73
56270;BME280;42176;43.240;27.880;2022-09-14T15:29:30;99782.28;;;23.13;63.10
56270;BME280;42176;43.240;27.880;2022-09-14T15:31:56;99783.28;;;23.23;63.44